Latest Weather Observations for Jervois

IDD60801

Issued at 3:35 pm CST Sunday 31 August 2014 (issued every 30 minutes, with the page automatically refreshed every 10 minutes)

About weather observations | Map of weather stations | Latest weather observations for NT | Other Formats
Station Details ID: 015602 Name: JERVOIS Lat: -22.95 Lon: 136.14 Height: 328.0 m
Data from the previous 72 hours. | See also: Recent months at Jervois
Date/Time
CST
Temp
°C
App
Temp
°C
Dew
Point
Rel
Hum
%
Delta-T
°C
Wind Press
QNH
hPa
Press
MSL
hPa
Rain
since 9 am
mm
Dir
 
Spd
km/h
Gust
km/h
Spd
kts
Gust
kts
31/03:30pm 28.5 23.4 -14.7 5 16.0 WSW 9 13 5 7 1015.5 - 0.0
31/03:00pm 28.7 23.3 -14.6 5 16.1 SW 11 20 6 11 1015.9 1015.4 0.0
31/02:30pm 27.0 22.1 -11.2 7 14.8 SSE 9 19 5 10 1016.4 - 0.0
31/02:00pm 27.9 23.4 -12.1 6 15.4 WSW 7 13 4 7 1016.6 - 0.0
31/01:30pm 27.1 22.9 -7.9 9 14.4 SE 7 15 4 8 1017.1 - 0.0
31/01:00pm 27.2 21.5 -12.0 7 15.0 SW 13 20 7 11 1017.6 - 0.0
31/12:30pm 27.5 21.8 -12.4 6 15.2 N 13 20 7 11 1018.2 - 0.0
31/12:00pm 25.6 21.2 -6.2 12 13.3 NE 9 20 5 11 1018.7 1018.2 0.0
31/11:30am 26.3 21.6 -8.9 9 14.1 NNE 9 17 5 9 1019.2 - 0.0
31/11:00am 25.5 20.6 -7.1 11 13.4 NNE 11 19 6 10 1019.6 - 0.0
31/10:30am 24.2 18.5 -7.1 12 12.7 NE 15 20 8 11 1019.8 - 0.0
31/10:00am 23.5 17.9 -6.3 13 12.2 ENE 15 19 8 10 1020.2 - 0.0
31/09:30am 22.0 17.6 -6.2 14 11.4 E 9 19 5 10 1020.4 - 0.0
31/09:00am 19.8 17.0 -3.4 20 9.7 SSW 2 9 1 5 1020.4 1020.0 0.0
31/08:30am 16.6 13.6 -5.2 22 8.5 SW 2 6 1 3 1020.3 - 0.0
31/08:00am 14.0 10.2 -5.3 26 7.3 WSW 6 7 3 4 1020.0 - 0.0
31/07:30am 10.4 7.8 -4.9 34 5.6 CALM 0 6 0 3 1019.7 - 0.0
31/07:00am 7.0 4.1 -7.6 34 4.8 CALM 0 0 0 0 1019.4 - 0.0
31/06:30am 6.5 3.7 -7.1 37 4.5 CALM 0 0 0 0 1019.0 - 0.0
31/06:00am 7.7 4.6 -5.9 37 4.7 SSW 2 6 1 3 1018.8 1018.3 0.0
31/05:30am 8.7 5.3 -5.0 37 4.9 SSW 4 7 2 4 1018.7 - 0.0
31/05:00am 9.3 5.4 -4.8 36 5.1 SW 7 11 4 6 1018.7 - 0.0
31/04:30am 11.3 6.9 -6.3 28 6.3 SW 9 13 5 7 1018.8 - 0.0
31/04:00am 10.5 6.5 -5.6 32 5.8 SSW 7 9 4 5 1018.8 - 0.0
31/03:30am 12.0 8.1 -4.9 30 6.3 SSW 7 9 4 5 1018.8 - 0.0
31/03:00am 12.3 7.9 -6.1 27 6.7 SSW 9 15 5 8 1018.8 1018.4 0.0
31/02:30am 12.5 8.1 -5.6 28 6.7 SSW 9 11 5 6 1019.0 - 0.0
31/02:00am 13.2 8.8 -5.6 26 7.0 S 9 13 5 7 1019.1 - 0.0
31/01:30am 13.3 8.9 -5.4 27 7.0 SSW 9 11 5 6 1019.2 - 0.0
31/01:00am 13.8 9.3 -6.7 23 7.5 SSW 9 13 5 7 1019.4 - 0.0
31/12:30am 13.9 9.4 -6.5 23 7.5 SSW 9 13 5 7 1019.6 - 0.0
31/12:00am 14.3 9.8 -6.6 23 7.7 SSW 9 11 5 6 1020.0 1019.5 0.0
 
Date/Time
CST
Temp
°C
App
Temp
°C
Dew
Point
Rel
Hum
%
Delta-T
°C
Wind Press
QNH
hPa
Press
MSL
hPa
Rain
since 9 am
mm
Dir
 
Spd
km/h
Gust
km/h
Spd
kts
Gust
kts
30/11:30pm 13.3 9.3 -5.4 27 7.0 SSW 7 11 4 6 1019.9 - 0.0
30/11:00pm 14.5 10.5 -6.1 23 7.7 SSW 7 11 4 6 1019.9 - 0.0
30/10:30pm 13.5 9.3 -7.4 23 7.5 SSW 7 11 4 6 1020.0 - 0.0
30/10:00pm 14.1 10.0 -7.0 22 7.7 SW 7 9 4 5 1020.0 - 0.0
30/09:30pm 15.6 11.5 -7.0 20 8.4 SSW 7 11 4 6 1019.8 - 0.0
30/09:00pm 14.7 10.6 -6.6 22 7.9 SSW 7 11 4 6 1019.6 1019.1 0.0
30/08:30pm 15.2 11.2 -6.0 22 8.0 S 7 7 4 4 1019.4 - 0.0
30/08:00pm 15.4 11.7 -3.3 27 7.5 S 7 9 4 5 1019.1 - 0.0
30/07:30pm 16.3 13.6 -5.9 21 8.5 ESE 0 0 0 0 1018.9 - 0.0
30/07:00pm 18.3 15.6 -6.0 18 9.5 ESE 0 0 0 0 1018.7 - 0.0
30/06:30pm 21.6 17.9 -4.7 17 10.9 SE 6 7 3 4 1018.5 - 0.0
30/06:00pm 23.6 19.2 -5.4 14 12.1 SSE 9 13 5 7 1018.4 1017.9 0.0
30/05:30pm 24.4 19.5 -7.6 11 12.9 SSE 11 15 6 8 1018.2 - 0.0
30/05:00pm 24.5 19.0 -9.2 10 13.2 SE 13 20 7 11 1018.1 - 0.0
30/04:30pm 25.4 20.7 -9.4 9 13.7 SSE 9 17 5 9 1017.8 - 0.0
30/04:00pm 24.7 20.0 -9.2 10 13.3 ESE 9 15 5 8 1017.7 - 0.0
30/03:30pm 25.3 19.8 -9.8 9 13.7 SSE 13 20 7 11 1017.7 - 0.0
30/03:00pm 24.4 19.2 -10.3 9 13.3 E 11 17 6 9 1018.1 1017.6 0.0
30/02:30pm 25.3 20.8 -12.2 7 14.0 SSE 7 19 4 10 1018.7 - 0.0
30/02:00pm 24.1 18.2 -10.1 9 13.1 ESE 15 22 8 12 1019.2 - 0.0
30/01:30pm 24.3 18.3 -11.6 8 13.4 ENE 15 24 8 13 1019.6 - 0.0
30/01:00pm 23.5 17.0 -12.5 8 13.1 ENE 17 26 9 14 1020.2 - 0.0
30/12:30pm 23.4 17.8 -11.4 9 12.9 ESE 13 30 7 16 1021.0 - 0.0
30/12:00pm 22.9 18.1 -10.3 10 12.5 ENE 9 20 5 11 1021.7 1021.2 0.0
30/11:30am 22.7 17.1 -10.4 10 12.4 E 13 22 7 12 1022.4 - 0.0
30/11:00am 22.0 16.0 -11.6 9 12.3 ESE 15 26 8 14 1022.9 - 0.0
30/10:30am 22.2 15.3 -13.2 8 12.5 SE 19 30 10 16 1023.0 - 0.0
30/10:00am 21.2 14.5 -10.1 11 11.6 ESE 19 26 10 14 1023.5 - 0.0
30/09:30am 20.4 15.0 -8.8 13 11.0 ESE 13 20 7 11 1023.5 - 0.0
30/09:00am 18.6 13.7 -7.5 16 9.9 ESE 11 15 6 8 1023.6 1023.2 0.0
30/08:30am 16.7 11.8 -7.6 18 9.0 SE 11 15 6 8 1023.5 - 0.0
30/08:00am 14.4 10.6 -5.4 25 7.5 SSE 6 7 3 4 1023.2 - 0.0
30/07:30am 11.8 7.8 -5.8 28 6.4 S 7 9 4 5 1023.0 - 0.0
30/07:00am 8.4 4.4 -6.0 35 5.0 S 7 13 4 7 1022.8 - 0.0
30/06:30am 7.7 3.8 -4.7 41 4.4 S 7 9 4 5 1022.5 - 0.0
30/06:00am 8.8 4.8 -5.7 35 5.1 S 7 9 4 5 1022.3 1021.7 0.0
30/05:30am 9.9 5.5 -5.9 32 5.6 S 9 11 5 6 1021.8 - 0.0
30/05:00am 10.6 6.2 -5.8 31 5.9 S 9 13 5 7 1021.6 - 0.0
30/04:30am 10.6 6.2 -5.4 32 5.8 S 9 11 5 6 1021.6 - 0.0
30/04:00am 11.4 6.7 -4.7 32 6.0 SSE 11 13 6 7 1021.4 - 0.0
30/03:30am 11.6 7.3 -4.8 31 6.1 SSE 9 11 5 6 1021.5 - 0.0
30/03:00am 11.7 7.4 -5.0 30 6.2 SSE 9 13 5 7 1021.6 1021.1 0.0
30/02:30am 11.7 7.6 -3.4 34 5.8 SSE 9 11 5 6 1021.8 - 0.0
30/02:00am 12.5 8.3 -3.9 31 6.3 SSE 9 11 5 6 1021.9 - 0.0
30/01:30am 13.0 8.8 -4.3 29 6.6 SSE 9 11 5 6 1021.9 - 0.0
30/01:00am 13.8 10.0 -4.0 29 6.9 SSE 7 11 4 6 1021.9 - 0.0
30/12:30am 15.4 10.7 -4.6 25 7.8 SE 11 17 6 9 1022.1 - 0.0
30/12:00am 16.0 10.9 -5.2 23 8.2 SE 13 17 7 9 1022.1 1021.6 0.0
 
Date/Time
CST
Temp
°C
App
Temp
°C
Dew
Point
Rel
Hum
%
Delta-T
°C
Wind Press
QNH
hPa
Press
MSL
hPa
Rain
since 9 am
mm
Dir
 
Spd
km/h
Gust
km/h
Spd
kts
Gust
kts
29/11:30pm 15.5 10.9 -4.0 26 7.7 SSE 11 13 6 7 1022.1 - 0.0
29/11:00pm 16.3 11.6 -5.0 23 8.3 SE 11 15 6 8 1022.1 - 0.0
29/10:30pm 16.5 11.8 -5.0 22 8.4 SE 11 15 6 8 1022.0 - 0.0
29/10:00pm 16.6 12.0 -4.3 23 8.3 SSE 11 13 6 7 1022.1 - 0.0
29/09:30pm 17.6 12.9 -4.8 21 8.9 SE 11 13 6 7 1021.9 - 0.0
29/09:00pm 18.0 13.7 -4.4 21 9.0 SSE 9 15 5 8 1021.8 1021.3 0.0
29/08:30pm 18.3 13.6 -5.1 20 9.3 SSE 11 15 6 8 1021.8 - 0.0
29/08:00pm 18.8 14.5 -4.4 20 9.4 SSE 9 13 5 7 1021.6 - 0.0
29/07:30pm 19.6 15.3 -4.8 19 9.9 SSE 9 13 5 7 1021.2 - 0.0
29/07:00pm 20.9 16.2 -5.5 16 10.7 SE 11 15 6 8 1020.7 - 0.0
29/06:30pm 21.8 17.0 -6.3 14 11.3 ESE 11 17 6 9 1020.4 - 0.0
29/06:00pm 23.1 16.9 -8.8 11 12.4 ESE 17 26 9 14 1020.1 1019.7 0.0
29/05:30pm 23.9 18.2 -7.4 12 12.6 ESE 15 22 8 12 1019.9 - 0.0
29/05:00pm 24.4 18.7 -7.7 11 12.9 ESE 15 20 8 11 1019.9 - 0.0
29/04:30pm 25.0 19.8 -6.4 12 13.0 SE 13 19 7 10 1019.9 - 0.0
29/04:00pm 24.5 18.0 -7.4 11 12.9 E 19 37 10 20 1020.1 - 0.0
29/03:30pm 24.8 19.1 -7.0 11 13.0 SE 15 24 8 13 1020.3 - 0.0
29/03:00pm 24.8 18.7 -7.6 11 13.1 ESE 17 28 9 15 1020.4 1020.0 0.0
29/02:30pm 25.1 19.0 -7.9 10 13.3 ESE 17 26 9 14 1020.7 - 0.0
29/02:00pm 24.2 18.5 -7.1 12 12.7 E 15 22 8 12 1021.2 - 0.0
29/01:30pm 24.4 18.4 -7.1 12 12.8 SE 17 28 9 15 1021.8 - 0.0
29/01:00pm 24.4 18.1 -6.0 13 12.6 E 19 30 10 16 1022.3 - 0.0
29/12:30pm 23.8 17.9 -6.1 13 12.3 SE 17 35 9 19 1022.9 - 0.0
29/12:00pm 23.6 18.2 -4.5 15 11.9 E 15 26 8 14 1023.3 1022.9 0.0
29/11:30am 23.4 16.8 -3.6 16 11.6 ESE 22 33 12 18 1023.8 - 0.0
29/11:00am 22.2 15.5 -3.8 17 11.1 E 22 33 12 18 1024.2 - 0.0
29/10:30am 21.3 14.3 -3.2 19 10.5 E 24 33 13 18 1024.8 - 0.0
29/10:00am 20.8 14.6 -3.4 19 10.2 E 20 30 11 16 1024.9 - 0.0
29/09:30am 19.5 12.1 -3.3 21 9.5 E 26 35 14 19 1024.9 - 0.0
29/09:00am 18.2 11.2 -3.1 23 8.8 E 24 37 13 20 1024.8 1024.3 0.0
29/08:30am 16.7 11.3 -1.6 28 7.7 E 17 24 9 13 1024.8 - 0.0
29/08:00am 13.8 10.5 -0.2 38 5.9 SSE 7 13 4 7 1024.6 - 0.0
29/07:30am 10.8 7.5 -0.9 44 4.7 S 6 13 3 7 1024.6 - 0.0
29/07:00am 7.8 4.5 -0.9 54 3.4 S 6 7 3 4 1024.1 - 0.0
29/06:30am 7.0 3.4 -2.0 53 3.4 S 7 9 4 5 1023.9 - 0.0
29/06:00am 7.7 5.1 -1.4 52 3.5 SSE 2 6 1 3 1023.4 1023.0 0.0
29/05:30am 8.6 5.5 -0.1 54 3.5 SSE 6 7 3 4 1023.0 - 0.0
29/05:00am 9.4 6.0 -0.6 49 4.0 S 7 9 4 5 1022.5 - 0.0
29/04:30am 10.8 7.5 -0.2 46 4.5 SSE 7 11 4 6 1022.2 - 0.0
29/04:00am 12.2 8.4 -0.7 41 5.3 SSE 9 13 5 7 1021.9 - 0.0
29/03:30am 12.4 8.6 -0.4 41 5.3 SE 9 13 5 7 1021.9 - 0.0
29/03:00am 12.6 8.9 -0.1 41 5.3 SSE 9 11 5 6 1022.0 1021.4 0.0
29/02:30am 13.3 9.1 -1.0 37 5.9 SSE 11 13 6 7 1022.2 - 0.0
29/02:00am 13.3 9.6 -0.3 39 5.7 SSE 9 13 5 7 1022.3 - 0.0
29/01:30am 13.5 9.8 0.0 39 5.7 SSE 9 11 5 6 1022.5 - 0.0
29/01:00am 13.9 9.8 -0.4 37 6.0 SE 11 13 6 7 1022.7 - 0.0
29/12:30am 14.2 10.4 -0.6 36 6.2 SSE 9 13 5 7 1022.8 - 0.0
29/12:00am 14.5 10.7 -0.4 36 6.3 SSE 9 13 5 7 1022.8 1022.5 0.0
 
Date/Time
CST
Temp
°C
App
Temp
°C
Dew
Point
Rel
Hum
%
Delta-T
°C
Wind Press
QNH
hPa
Press
MSL
hPa
Rain
since 9 am
mm
Dir
 
Spd
km/h
Gust
km/h
Spd
kts
Gust
kts
28/11:30pm 15.0 11.3 -0.2 35 6.5 SSE 9 13 5 7 1023.0 - 0.0
28/11:00pm 15.5 11.8 -0.1 34 6.7 SSE 9 13 5 7 1023.1 - 0.0
28/10:30pm 16.2 12.4 -0.7 31 7.2 SE 9 13 5 7 1023.3 - 0.0
28/10:00pm 16.8 12.6 -0.7 30 7.5 SE 11 13 6 7 1023.4 - 0.0
28/09:30pm 17.1 13.3 -0.8 29 7.7 SE 9 13 5 7 1023.4 - 0.0
28/09:00pm 17.6 13.8 -0.7 29 7.9 SSE 9 13 5 7 1023.3 1022.8 0.0
28/08:30pm 18.4 14.6 -1.0 27 8.4 SE 9 11 5 6 1023.0 - 0.0
28/08:00pm 19.1 15.3 -0.8 26 8.7 SSE 9 11 5 6 1022.7 - 0.0
28/07:30pm 20.1 15.9 -1.1 24 9.3 SE 11 13 6 7 1022.2 - 0.0
28/07:00pm 21.1 16.5 -1.4 22 9.9 SE 13 17 7 9 1021.9 - 0.0
28/06:30pm 22.0 17.2 -2.8 19 10.7 SE 13 19 7 10 1021.6 - 0.0
28/06:00pm 22.8 17.9 -3.1 17 11.2 SE 13 24 7 13 1021.4 1020.9 0.0
28/05:30pm 23.4 17.7 -3.5 16 11.6 SE 17 26 9 14 1021.5 - 0.0
28/05:00pm 24.0 18.0 -3.4 16 11.9 SSE 19 28 10 15 1021.3 - 0.0
28/04:30pm 24.4 18.2 -2.9 16 12.0 ESE 20 35 11 19 1021.3 - 0.0
28/04:00pm 24.8 19.2 -2.8 16 12.2 SE 17 26 9 14 1021.2 - 0.0

Other Formats:

Comma delimited format used in spreadsheet applications
http://www.bom.gov.au/fwo/IDD60801/IDD60801.94327.axf

JavaScript Object Notation format (JSON) in row-major order
http://www.bom.gov.au/fwo/IDD60801/IDD60801.94327.json